createdAt,value
2022-09-17T00:01:26.344Z,12.19
2022-09-17T00:03:56.528Z,12.15
2022-09-17T00:06:25.460Z,12.22
2022-09-17T00:08:53.896Z,12.28
2022-09-17T00:11:29.733Z,12.30
2022-09-17T00:14:00.553Z,12.23
2022-09-17T00:16:34.531Z,12.31
2022-09-17T00:19:03.246Z,12.34
2022-09-17T00:21:30.464Z,12.39
2022-09-17T00:24:04.523Z,12.34
2022-09-17T00:26:33.751Z,12.39
2022-09-17T00:29:01.663Z,12.40
2022-09-17T00:31:32.985Z,12.41
2022-09-17T00:34:01.653Z,12.34
2022-09-17T00:36:29.309Z,12.34
2022-09-17T00:38:59.693Z,12.41
2022-09-17T00:41:31.264Z,12.46
2022-09-17T00:44:03.082Z,12.47
2022-09-17T00:46:42.753Z,12.43
2022-09-17T00:49:21.975Z,12.36
2022-09-17T00:52:10.865Z,12.28
2022-09-17T00:54:44.217Z,12.32
2022-09-17T00:57:12.058Z,12.37
2022-09-17T00:59:39.163Z,12.37
2022-09-17T01:02:06.575Z,12.38
2022-09-17T01:04:33.510Z,12.32
2022-09-17T01:07:14.602Z,12.32
2022-09-17T01:10:06.125Z,12.32
2022-09-17T01:13:06.293Z,12.25
2022-09-17T01:16:03.623Z,12.24
2022-09-17T01:18:56.823Z,12.20
2022-09-17T01:21:49.870Z,12.28
2022-09-17T01:24:41.425Z,12.22
2022-09-17T01:27:53.089Z,12.22
2022-09-17T01:30:51.885Z,12.24
2022-09-17T01:33:33.666Z,12.27
2022-09-17T01:36:48.345Z,12.27
2022-09-17T01:39:34.535Z,12.33
2022-09-17T01:42:10.286Z,12.31
2022-09-17T01:45:10.774Z,12.19
2022-09-17T01:47:52.345Z,12.24
2022-09-17T01:50:30.961Z,12.26
2022-09-17T01:52:59.991Z,12.21
2022-09-17T01:55:35.800Z,12.17
2022-09-17T01:58:39.623Z,12.10
2022-09-17T02:01:12.276Z,12.00
2022-09-17T02:04:03.756Z,11.97
2022-09-17T02:06:37.966Z,11.99
2022-09-17T02:09:50.994Z,11.99
2022-09-17T02:12:28.405Z,12.04
2022-09-17T02:15:01.190Z,12.02
2022-09-17T02:17:37.078Z,12.02
2022-09-17T02:20:06.667Z,11.91
2022-09-17T02:22:48.289Z,11.82
2022-09-17T02:25:44.138Z,11.81
2022-09-17T02:28:51.351Z,11.83
2022-09-17T02:31:18.561Z,11.76
2022-09-17T02:33:50.949Z,11.73
2022-09-17T02:36:19.294Z,11.72
2022-09-17T02:38:46.599Z,11.72
2022-09-17T02:41:21.820Z,11.76
2022-09-17T02:44:13.030Z,11.73
2022-09-17T02:47:12.037Z,11.69
2022-09-17T02:50:28.461Z,11.73
2022-09-17T02:53:23.815Z,11.66
2022-09-17T02:56:23.639Z,11.64
2022-09-17T02:59:24.101Z,11.56
2022-09-17T03:02:00.699Z,11.52
2022-09-17T03:04:30.031Z,11.54
2022-09-17T03:06:59.505Z,11.54
2022-09-17T03:09:26.965Z,11.51
2022-09-17T03:11:53.922Z,11.48
2022-09-17T03:14:20.721Z,11.47
2022-09-17T03:16:48.221Z,11.51
2022-09-17T03:19:15.435Z,11.56
2022-09-17T03:21:42.311Z,11.50
2022-09-17T03:24:10.860Z,11.46
2022-09-17T03:26:38.730Z,11.37
2022-09-17T03:29:05.920Z,11.45
2022-09-17T03:31:32.798Z,11.43
2022-09-17T03:33:59.739Z,11.40
2022-09-17T03:36:26.586Z,11.39
2022-09-17T03:38:57.770Z,11.41
2022-09-17T03:41:25.754Z,11.35
2022-09-17T03:43:55.759Z,11.35
2022-09-17T03:46:22.642Z,11.31
2022-09-17T03:48:49.509Z,11.30
2022-09-17T03:51:16.505Z,11.27
2022-09-17T03:53:43.373Z,11.31
2022-09-17T03:56:10.410Z,11.24
2022-09-17T03:58:37.320Z,11.21
2022-09-17T04:01:04.849Z,11.26
2022-09-17T04:03:32.570Z,11.17
2022-09-17T04:06:00.002Z,11.17
2022-09-17T04:08:27.126Z,11.20
2022-09-17T04:10:54.224Z,11.24
2022-09-17T04:13:21.466Z,11.34
2022-09-17T04:15:49.397Z,11.37
2022-09-17T04:18:16.788Z,11.35
2022-09-17T04:20:43.850Z,11.36
2022-09-17T04:23:14.132Z,11.34
2022-09-17T04:25:40.944Z,11.39
2022-09-17T04:28:07.950Z,11.28
2022-09-17T04:30:35.087Z,11.30
2022-09-17T04:33:02.253Z,11.29
2022-09-17T04:35:29.057Z,11.37
2022-09-17T04:37:58.118Z,11.34
2022-09-17T04:40:26.968Z,11.27
2022-09-17T04:42:56.051Z,11.25
2022-09-17T04:45:23.527Z,11.24
2022-09-17T04:47:53.430Z,11.25
2022-09-17T04:50:21.455Z,11.31
2022-09-17T04:52:49.060Z,11.32
2022-09-17T04:55:16.819Z,11.35
2022-09-17T04:57:49.178Z,11.37
2022-09-17T05:00:18.066Z,11.37
2022-09-17T05:02:49.166Z,11.30
2022-09-17T05:05:17.783Z,11.31
2022-09-17T05:07:45.357Z,11.40
2022-09-17T05:10:15.160Z,11.31
2022-09-17T05:12:48.214Z,11.23
2022-09-17T05:15:15.089Z,11.25
2022-09-17T05:17:42.078Z,11.21
2022-09-17T05:20:09.867Z,11.25
2022-09-17T05:22:51.596Z,11.33
2022-09-17T05:25:24.448Z,11.24
2022-09-17T05:27:53.505Z,11.30
2022-09-17T05:30:21.138Z,11.24
2022-09-17T05:32:48.657Z,11.26
2022-09-17T05:35:15.842Z,11.29
2022-09-17T05:37:43.018Z,11.36
2022-09-17T05:40:10.633Z,11.32
2022-09-17T05:42:38.786Z,11.29
2022-09-17T05:45:08.208Z,11.22
2022-09-17T05:47:35.365Z,11.24
2022-09-17T05:50:02.390Z,11.17
2022-09-17T05:52:29.928Z,11.26
2022-09-17T05:54:57.181Z,11.29
2022-09-17T05:57:25.020Z,11.36
2022-09-17T05:59:51.965Z,11.34
2022-09-17T06:02:18.955Z,11.33
2022-09-17T06:04:46.642Z,11.29
2022-09-17T06:07:13.605Z,11.32
2022-09-17T06:09:43.187Z,11.29
2022-09-17T06:12:09.931Z,11.29
2022-09-17T06:14:36.799Z,11.32
2022-09-17T06:17:03.729Z,11.21
2022-09-17T06:19:30.615Z,11.26
2022-09-17T06:21:57.502Z,11.15
2022-09-17T06:24:24.403Z,11.13
2022-09-17T06:26:52.320Z,11.16
2022-09-17T06:29:20.544Z,11.10
2022-09-17T06:31:49.177Z,10.99
2022-09-17T06:34:17.155Z,10.97
2022-09-17T06:36:44.226Z,11.02
2022-09-17T06:39:11.755Z,11.03
2022-09-17T06:41:38.961Z,10.96
2022-09-17T06:44:05.784Z,10.91
2022-09-17T06:46:36.947Z,10.82
2022-09-17T06:49:03.941Z,10.75
2022-09-17T06:51:31.329Z,10.81
2022-09-17T06:53:58.299Z,10.79
2022-09-17T06:56:26.518Z,10.75
2022-09-17T06:58:54.467Z,10.76
2022-09-17T07:01:21.343Z,10.73
2022-09-17T07:03:49.683Z,10.68
2022-09-17T07:06:16.470Z,10.64
2022-09-17T07:08:43.774Z,10.67
2022-09-17T07:11:10.838Z,10.51
2022-09-17T07:13:37.652Z,10.48
2022-09-17T07:16:06.402Z,10.62
2022-09-17T07:18:33.993Z,10.65
2022-09-17T07:21:04.145Z,10.72
2022-09-17T07:23:34.732Z,10.81
2022-09-17T07:26:09.006Z,10.93
2022-09-17T07:28:39.201Z,10.91
2022-09-17T07:31:08.657Z,10.93
2022-09-17T07:33:38.356Z,11.00
2022-09-17T07:36:11.371Z,11.09
2022-09-17T07:38:38.760Z,11.16
2022-09-17T07:41:12.957Z,11.21
2022-09-17T07:43:41.415Z,11.25
2022-09-17T07:46:17.932Z,11.34
2022-09-17T07:48:47.404Z,11.43
2022-09-17T07:51:30.702Z,11.42
2022-09-17T07:53:59.516Z,11.45
2022-09-17T07:56:27.947Z,11.45
2022-09-17T07:58:55.446Z,11.59
2022-09-17T08:01:23.033Z,11.67
2022-09-17T08:03:54.654Z,11.69
2022-09-17T08:06:30.918Z,11.92
2022-09-17T08:09:00.161Z,12.22
2022-09-17T08:14:17.381Z,13.06
2022-09-17T08:16:46.409Z,13.37
2022-09-17T08:19:13.397Z,13.40
2022-09-17T08:21:41.144Z,13.05
2022-09-17T08:24:08.644Z,12.86
2022-09-17T08:26:36.369Z,12.92
2022-09-17T08:29:03.325Z,12.81
2022-09-17T08:31:30.608Z,12.72
2022-09-17T08:33:57.929Z,12.72
2022-09-17T08:36:26.210Z,12.81
2022-09-17T08:38:54.933Z,12.94
2022-09-17T08:41:40.439Z,12.86
2022-09-17T08:44:26.337Z,12.93
2022-09-17T08:47:13.164Z,12.99
2022-09-17T08:49:56.032Z,12.92
2022-09-17T08:53:21.238Z,12.89
2022-09-17T08:56:13.297Z,13.04
2022-09-17T08:59:14.488Z,12.92
2022-09-17T09:01:59.222Z,12.78
2022-09-17T09:04:59.051Z,12.67
2022-09-17T09:07:42.410Z,12.72
2022-09-17T09:10:37.919Z,12.87
2022-09-17T09:13:05.237Z,13.11
2022-09-17T09:15:45.642Z,13.06
2022-09-17T09:18:22.083Z,12.89
2022-09-17T09:20:55.678Z,12.97
2022-09-17T09:23:57.393Z,13.08
2022-09-17T09:26:48.120Z,13.13
2022-09-17T09:30:02.022Z,12.99
2022-09-17T09:33:14.526Z,13.21
2022-09-17T09:35:44.760Z,14.09
2022-09-17T09:38:35.757Z,14.54
2022-09-17T09:41:15.612Z,15.22
2022-09-17T09:44:06.063Z,15.79
2022-09-17T09:47:13.361Z,16.01
2022-09-17T09:50:18.839Z,16.39
2022-09-17T09:53:24.120Z,16.28
2022-09-17T09:56:22.135Z,16.21
2022-09-17T09:58:49.181Z,15.97
2022-09-17T10:01:23.059Z,15.78
2022-09-17T10:03:54.050Z,15.46
2022-09-17T10:06:21.403Z,15.03
2022-09-17T10:08:57.318Z,14.79
2022-09-17T10:11:34.166Z,15.08
2022-09-17T10:14:29.269Z,15.73
2022-09-17T10:17:22.128Z,15.83
2022-09-17T10:20:12.000Z,15.95
2022-09-17T10:22:46.896Z,15.54
2022-09-17T10:25:35.059Z,15.48
2022-09-17T10:28:21.120Z,15.50
2022-09-17T10:31:10.242Z,15.49
2022-09-17T10:34:01.023Z,15.64
2022-09-17T10:36:44.428Z,15.46
2022-09-17T10:39:27.536Z,15.62
2022-09-17T10:41:59.811Z,16.23
2022-09-17T10:44:36.923Z,16.75
2022-09-17T10:47:33.434Z,17.31
2022-09-17T10:50:18.761Z,17.43
2022-09-17T10:52:54.221Z,17.83
2022-09-17T10:55:51.017Z,17.82
2022-09-17T10:58:42.267Z,17.58
2022-09-17T11:01:48.330Z,17.77
2022-09-17T11:04:27.516Z,18.08
2022-09-17T11:07:49.381Z,18.51
2022-09-17T11:10:46.238Z,18.29
2022-09-17T11:13:43.067Z,18.79
2022-09-17T11:16:45.376Z,19.66
2022-09-17T11:20:07.224Z,20.12
2022-09-17T11:23:07.185Z,20.09
2022-09-17T11:26:00.883Z,20.55
2022-09-17T11:28:46.917Z,19.75
2022-09-17T11:31:51.268Z,18.44
2022-09-17T11:34:36.215Z,17.45
2022-09-17T11:37:24.294Z,17.12
2022-09-17T11:40:00.649Z,18.11
2022-09-17T11:42:57.821Z,18.45
2022-09-17T11:45:39.946Z,18.09
2022-09-17T11:48:18.477Z,18.01
2022-09-17T11:51:20.608Z,17.28
2022-09-17T11:54:05.158Z,16.60
2022-09-17T11:57:07.689Z,15.87
2022-09-17T12:00:17.962Z,15.46
2022-09-17T12:03:07.464Z,15.12
2022-09-17T12:05:51.415Z,15.04
2022-09-17T12:08:48.005Z,14.85
2022-09-17T12:11:26.848Z,14.71
2022-09-17T12:14:09.626Z,14.52
2022-09-17T12:16:43.559Z,14.55
2022-09-17T12:19:35.928Z,14.56
2022-09-17T12:22:17.959Z,14.55
2022-09-17T12:24:45.438Z,14.39
2022-09-17T12:27:54.386Z,14.08
2022-09-17T12:30:38.371Z,13.91
2022-09-17T12:33:23.273Z,13.72
2022-09-17T12:36:19.654Z,13.59
2022-09-17T12:39:11.474Z,13.41
2022-09-17T12:42:12.974Z,13.26
2022-09-17T12:45:19.581Z,13.25
2022-09-17T12:48:10.972Z,13.17
2022-09-17T12:51:07.189Z,13.33
2022-09-17T12:53:52.858Z,13.30
2022-09-17T12:56:32.775Z,13.28
2022-09-17T12:59:05.447Z,14.39
2022-09-17T13:01:51.765Z,14.48
2022-09-17T13:05:00.463Z,14.12
2022-09-17T13:08:20.251Z,14.45
2022-09-17T13:11:24.177Z,15.00
2022-09-17T13:14:09.235Z,15.55
2022-09-17T13:17:07.525Z,15.78
2022-09-17T13:20:14.605Z,15.58
2022-09-17T13:22:49.641Z,15.11
2022-09-17T13:25:20.023Z,14.94
2022-09-17T13:27:50.009Z,15.01
2022-09-17T13:30:19.157Z,15.72
2022-09-17T13:32:51.509Z,16.22
2022-09-17T13:35:18.263Z,16.60
2022-09-17T13:37:59.578Z,17.16
2022-09-17T13:40:34.267Z,17.39
2022-09-17T13:43:04.321Z,18.42
2022-09-17T13:45:33.808Z,19.22
2022-09-17T13:48:37.084Z,19.40
2022-09-17T13:51:32.366Z,19.75
2022-09-17T13:54:07.599Z,19.79
2022-09-17T13:56:41.333Z,20.30
2022-09-17T13:59:18.084Z,20.30
2022-09-17T14:02:31.011Z,20.24
2022-09-17T14:05:33.912Z,18.44
2022-09-17T14:08:46.743Z,17.28
2022-09-17T14:11:22.891Z,16.55
2022-09-17T14:14:05.293Z,16.97
2022-09-17T14:16:46.205Z,18.31
2022-09-17T14:19:16.109Z,18.57
2022-09-17T14:22:35.913Z,18.69
2022-09-17T14:25:02.870Z,18.63
2022-09-17T14:27:57.030Z,18.65
2022-09-17T14:30:31.914Z,18.45
2022-09-17T14:33:10.238Z,18.64
2022-09-17T14:35:42.258Z,18.53
2022-09-17T14:38:27.285Z,17.80
2022-09-17T14:41:17.860Z,16.89
2022-09-17T14:43:57.039Z,16.19
2022-09-17T14:46:40.606Z,15.93
2022-09-17T14:49:35.925Z,15.73
2022-09-17T14:52:30.405Z,15.68
2022-09-17T14:55:31.752Z,15.60
2022-09-17T14:58:04.899Z,15.55
2022-09-17T15:00:38.760Z,15.55
2022-09-17T15:03:06.923Z,15.58
2022-09-17T15:05:43.286Z,15.50
2022-09-17T15:08:10.070Z,15.49
2022-09-17T15:10:59.955Z,15.56
2022-09-17T15:13:35.376Z,15.71
2022-09-17T15:16:25.719Z,15.66
2022-09-17T15:18:54.255Z,15.58
2022-09-17T15:21:50.638Z,15.58
2022-09-17T15:24:44.598Z,15.50
2022-09-17T15:27:38.235Z,15.38
2022-09-17T15:30:20.761Z,15.38
2022-09-17T15:33:01.323Z,15.29
2022-09-17T15:35:32.453Z,15.22
2022-09-17T15:40:49.725Z,15.19
2022-09-17T15:43:30.674Z,15.10
2022-09-17T15:46:01.441Z,15.10
2022-09-17T15:48:28.139Z,15.00
2022-09-17T15:50:58.765Z,14.96
2022-09-17T15:53:35.220Z,15.03
2022-09-17T15:56:08.693Z,15.08
2022-09-17T15:59:01.599Z,15.16
2022-09-17T16:01:53.573Z,15.12
2022-09-17T16:04:35.002Z,15.04
2022-09-17T16:07:27.952Z,14.98
2022-09-17T16:09:56.547Z,14.93
2022-09-17T16:12:26.937Z,14.97
2022-09-17T16:14:57.168Z,14.93
2022-09-17T16:17:35.701Z,14.80
2022-09-17T16:20:16.363Z,14.70
2022-09-17T16:22:44.722Z,14.62
2022-09-17T16:25:12.022Z,14.61
2022-09-17T16:28:08.465Z,14.58
2022-09-17T16:30:35.860Z,14.45
2022-09-17T16:33:04.076Z,14.38
2022-09-17T16:35:30.952Z,14.22
2022-09-17T16:37:57.885Z,13.94
2022-09-17T16:40:28.195Z,13.65
2022-09-17T16:42:55.812Z,13.58
2022-09-17T16:45:26.776Z,13.52
2022-09-17T16:47:56.411Z,13.40
2022-09-17T16:50:25.167Z,13.37
2022-09-17T16:52:53.447Z,13.26
2022-09-17T16:55:21.863Z,13.14
2022-09-17T16:57:48.669Z,13.10
2022-09-17T17:00:20.226Z,13.16
2022-09-17T17:02:57.514Z,13.13
2022-09-17T17:05:26.474Z,13.11
2022-09-17T17:07:55.222Z,13.12
2022-09-17T17:10:27.690Z,13.09
2022-09-17T17:12:54.647Z,13.08
2022-09-17T17:15:22.429Z,13.04
2022-09-17T17:17:49.906Z,13.01
2022-09-17T17:20:17.177Z,12.89
2022-09-17T17:22:45.072Z,12.80
2022-09-17T17:25:14.302Z,12.81
2022-09-17T17:27:41.938Z,12.74
2022-09-17T17:30:10.291Z,12.68
2022-09-17T17:32:37.543Z,12.63
2022-09-17T17:35:06.468Z,12.67
2022-09-17T17:37:33.341Z,12.68
2022-09-17T17:40:01.920Z,12.74
2022-09-17T17:42:35.629Z,12.72
2022-09-17T17:45:02.892Z,12.76
2022-09-17T17:47:29.901Z,12.76
2022-09-17T17:49:56.751Z,12.76
2022-09-17T17:52:23.630Z,12.76
2022-09-17T17:54:50.871Z,12.66
2022-09-17T17:57:17.900Z,12.64
2022-09-17T17:59:44.830Z,12.66
2022-09-17T18:02:12.189Z,12.73
2022-09-17T18:04:39.114Z,12.75
2022-09-17T18:07:06.185Z,12.71
2022-09-17T18:09:33.422Z,12.74
2022-09-17T18:12:00.297Z,12.73
2022-09-17T18:14:27.392Z,12.78
2022-09-17T18:16:54.395Z,12.72
2022-09-17T18:19:21.236Z,12.73
2022-09-17T18:21:48.061Z,12.71
2022-09-17T18:24:14.965Z,12.75
2022-09-17T18:26:41.861Z,12.76
2022-09-17T18:29:09.308Z,12.69
2022-09-17T18:31:37.723Z,12.66
2022-09-17T18:34:10.733Z,12.67
2022-09-17T18:36:39.466Z,12.63
2022-09-17T18:39:44.883Z,12.57
2022-09-17T18:41:58.005Z,12.58
2022-09-17T18:44:25.301Z,12.53
2022-09-17T18:46:52.136Z,12.51
2022-09-17T18:49:18.956Z,11.97
2022-09-17T18:51:46.144Z,11.61
2022-09-17T18:54:14.750Z,11.55
2022-09-17T18:56:41.770Z,11.53
2022-09-17T18:59:12.190Z,11.52
2022-09-17T19:01:39.248Z,11.36
2022-09-17T19:04:07.622Z,11.28
2022-09-17T19:06:35.044Z,11.24
2022-09-17T19:09:04.691Z,11.29
2022-09-17T19:11:31.594Z,11.22
2022-09-17T19:13:58.591Z,11.15
2022-09-17T19:16:25.879Z,11.04
2022-09-17T19:18:52.905Z,10.86
2022-09-17T19:21:21.620Z,10.68
2022-09-17T19:23:51.423Z,10.71
2022-09-17T19:26:22.387Z,10.59
2022-09-17T19:28:58.036Z,10.50
2022-09-17T19:31:26.662Z,10.56
2022-09-17T19:33:54.123Z,10.60
2022-09-17T19:36:21.335Z,10.56
2022-09-17T19:38:51.138Z,10.56
2022-09-17T19:41:23.133Z,10.49
2022-09-17T19:43:54.945Z,10.48
2022-09-17T19:46:25.227Z,10.43
2022-09-17T19:48:55.862Z,10.46
2022-09-17T19:51:25.935Z,10.42
2022-09-17T19:53:53.262Z,10.48
2022-09-17T19:56:23.813Z,10.47
2022-09-17T19:58:51.233Z,10.41
2022-09-17T20:01:19.364Z,10.43
2022-09-17T20:03:48.161Z,10.47
2022-09-17T20:06:18.234Z,10.45
2022-09-17T20:08:57.461Z,10.47
2022-09-17T20:11:25.508Z,10.51
2022-09-17T20:14:06.381Z,10.58
2022-09-17T20:16:36.057Z,10.66
2022-09-17T20:19:03.735Z,10.69
2022-09-17T20:21:31.044Z,10.75
2022-09-17T20:23:59.012Z,10.85
2022-09-17T20:26:27.297Z,10.94
2022-09-17T20:28:55.591Z,11.07
2022-09-17T20:31:26.203Z,11.15
2022-09-17T20:33:56.309Z,11.21
2022-09-17T20:36:26.866Z,11.24
2022-09-17T20:39:11.588Z,11.24
2022-09-17T20:41:41.429Z,11.32
2022-09-17T20:44:08.293Z,11.31
2022-09-17T20:46:35.372Z,11.35
2022-09-17T20:49:02.306Z,11.35
2022-09-17T20:51:32.589Z,11.34
2022-09-17T20:54:00.949Z,11.33
2022-09-17T20:56:31.752Z,11.34
2022-09-17T20:59:09.329Z,11.36
2022-09-17T21:01:37.670Z,11.40
2022-09-17T21:04:07.468Z,11.40
2022-09-17T21:06:38.690Z,11.36
2022-09-17T21:09:07.414Z,11.28
2022-09-17T21:11:35.069Z,11.26
2022-09-17T21:14:02.794Z,11.29
2022-09-17T21:16:31.083Z,11.39
2022-09-17T21:19:02.341Z,11.41
2022-09-17T21:21:30.301Z,11.39
2022-09-17T21:24:01.417Z,11.36
2022-09-17T21:26:29.154Z,11.34
2022-09-17T21:28:57.338Z,11.31
2022-09-17T21:31:32.097Z,11.31
2022-09-17T21:34:02.957Z,11.32
2022-09-17T21:36:34.001Z,11.32
2022-09-17T21:39:16.760Z,11.29
2022-09-17T21:41:45.536Z,11.25
2022-09-17T21:44:13.494Z,11.27
2022-09-17T21:46:42.678Z,11.31
2022-09-17T21:49:10.197Z,11.30
2022-09-17T21:51:42.245Z,11.32
2022-09-17T21:54:16.678Z,11.27
2022-09-17T21:56:45.142Z,11.24
2022-09-17T21:59:14.444Z,11.29
2022-09-17T22:01:48.498Z,11.29
2022-09-17T22:04:20.049Z,11.24
2022-09-17T22:06:49.410Z,11.21
2022-09-17T22:09:22.849Z,11.22
2022-09-17T22:11:51.506Z,11.25
2022-09-17T22:14:24.613Z,11.22
2022-09-17T22:16:54.318Z,11.17
2022-09-17T22:19:23.863Z,11.21
2022-09-17T22:21:56.769Z,11.26
2022-09-17T22:24:24.678Z,11.15
2022-09-17T22:26:57.907Z,11.11
2022-09-17T22:29:30.152Z,11.12
2022-09-17T22:31:57.381Z,11.17
2022-09-17T22:34:25.779Z,11.19
2022-09-17T22:36:52.762Z,11.20
2022-09-17T22:39:22.963Z,11.17
2022-09-17T22:41:50.475Z,11.15
2022-09-17T22:44:20.090Z,11.22
2022-09-17T22:46:50.929Z,11.23
2022-09-17T22:49:19.246Z,11.26
2022-09-17T22:51:47.280Z,11.20
2022-09-17T22:54:16.813Z,11.23
2022-09-17T22:56:44.472Z,11.27
2022-09-17T22:59:11.996Z,11.31
2022-09-17T23:01:40.604Z,11.36
2022-09-17T23:04:08.081Z,11.31
2022-09-17T23:06:38.495Z,11.38
2022-09-17T23:09:06.711Z,11.34
2022-09-17T23:11:38.810Z,11.32
2022-09-17T23:14:11.917Z,11.37
2022-09-17T23:16:47.918Z,11.34
2022-09-17T23:19:19.822Z,11.27
2022-09-17T23:21:47.428Z,11.24
2022-09-17T23:24:20.716Z,11.23
2022-09-17T23:26:49.259Z,11.17
2022-09-17T23:29:16.623Z,11.17
2022-09-17T23:31:43.494Z,11.18
2022-09-17T23:34:10.762Z,11.18
2022-09-17T23:36:39.977Z,11.12
2022-09-17T23:39:09.089Z,11.14
2022-09-17T23:41:40.516Z,11.19
2022-09-17T23:44:14.957Z,11.17
2022-09-17T23:46:44.699Z,11.25
2022-09-17T23:49:13.864Z,11.22
2022-09-17T23:51:41.229Z,11.23
2022-09-17T23:54:10.569Z,11.25
2022-09-17T23:56:37.501Z,11.27
2022-09-17T23:59:04.915Z,11.26
